5FL5 weather

Palm Beach County Judicial Center Heliport
West Palm Beach, Florida, United States

Public forecast

Using degrees Fahrenheit for public forecast. Weather courtesy of forecast.io.

Closest aviation weather report (METAR) to Palm Beach County Judicial Center Heliport

Closest report is Palm Beach International Airport, 2.9 nm (5.4 km) SW. Retrieved 2019/10/20 06:53 UTC (27 minutes ago):

KPBI 200653Z 19009KT 10SM BKN110 28/24 A2987 RMK AO2 SLP115 T02780244

Closest aviation forecast (TAF) to Palm Beach County Judicial Center Heliport

Closest forecast is Palm Beach International Airport, 2.9 nm (5.4 km) SW. Retrieved 2019/10/20 06:49 UTC (31 minutes ago):

TAF KPBI 200540Z 2006/2106 17010KT P6SM VCSH SCT020 BKN110 FM200900 21007KT P6SM VCSH FEW020 SCT110 FM201800 19010KT P6SM VCTS SCT035CB BKN120 FM210100 VRB03KT P6SM FEW050 SCT250